sensor_id;sensor_type;location;lat;lon;timestamp;P1;durP1;ratioP1;P2;durP2;ratioP2
12986;SDS011;58897;51.960;5.582;2023-04-28T00:00:13;8.07;;;5.07;;
12986;SDS011;58897;51.960;5.582;2023-04-28T00:02:39;9.10;;;5.00;;
12986;SDS011;58897;51.960;5.582;2023-04-28T00:05:06;4.80;;;3.60;;
12986;SDS011;58897;51.960;5.582;2023-04-28T00:07:33;6.77;;;3.93;;
12986;SDS011;58897;51.960;5.582;2023-04-28T00:10:00;7.93;;;4.60;;
12986;SDS011;58897;51.960;5.582;2023-04-28T00:12:26;6.67;;;3.90;;
12986;SDS011;58897;51.960;5.582;2023-04-28T00:14:53;8.60;;;4.47;;
12986;SDS011;58897;51.960;5.582;2023-04-28T00:17:19;9.27;;;4.37;;
12986;SDS011;58897;51.960;5.582;2023-04-28T00:19:46;6.23;;;3.87;;
12986;SDS011;58897;51.960;5.582;2023-04-28T00:22:12;7.73;;;4.60;;
12986;SDS011;58897;51.960;5.582;2023-04-28T00:24:40;11.73;;;5.60;;
12986;SDS011;58897;51.960;5.582;2023-04-28T00:27:07;7.43;;;4.37;;
12986;SDS011;58897;51.960;5.582;2023-04-28T00:29:33;7.40;;;4.60;;
12986;SDS011;58897;51.960;5.582;2023-04-28T00:32:00;7.67;;;5.20;;
12986;SDS011;58897;51.960;5.582;2023-04-28T00:34:26;7.83;;;4.53;;
12986;SDS011;58897;51.960;5.582;2023-04-28T00:36:55;7.67;;;4.67;;
12986;SDS011;58897;51.960;5.582;2023-04-28T00:39:22;6.70;;;4.03;;
12986;SDS011;58897;51.960;5.582;2023-04-28T00:41:50;10.10;;;4.80;;
12986;SDS011;58897;51.960;5.582;2023-04-28T00:44:17;5.50;;;4.17;;
12986;SDS011;58897;51.960;5.582;2023-04-28T00:46:43;8.83;;;4.50;;
12986;SDS011;58897;51.960;5.582;2023-04-28T00:49:10;9.10;;;4.40;;
12986;SDS011;58897;51.960;5.582;2023-04-28T00:51:37;7.13;;;5.13;;
12986;SDS011;58897;51.960;5.582;2023-04-28T00:54:04;6.97;;;4.33;;
12986;SDS011;58897;51.960;5.582;2023-04-28T00:56:31;8.83;;;4.00;;
12986;SDS011;58897;51.960;5.582;2023-04-28T00:58:59;6.53;;;4.37;;
12986;SDS011;58897;51.960;5.582;2023-04-28T01:01:25;9.83;;;4.90;;
12986;SDS011;58897;51.960;5.582;2023-04-28T01:03:52;6.00;;;3.93;;
12986;SDS011;58897;51.960;5.582;2023-04-28T01:06:19;7.80;;;4.63;;
12986;SDS011;58897;51.960;5.582;2023-04-28T01:08:49;12.00;;;5.33;;
12986;SDS011;58897;51.960;5.582;2023-04-28T01:11:16;10.47;;;4.77;;
12986;SDS011;58897;51.960;5.582;2023-04-28T01:13:42;7.13;;;3.87;;
12986;SDS011;58897;51.960;5.582;2023-04-28T01:16:09;8.03;;;5.47;;
12986;SDS011;58897;51.960;5.582;2023-04-28T01:18:37;8.53;;;4.60;;
12986;SDS011;58897;51.960;5.582;2023-04-28T01:21:04;10.73;;;6.60;;
12986;SDS011;58897;51.960;5.582;2023-04-28T01:23:31;7.63;;;4.77;;
12986;SDS011;58897;51.960;5.582;2023-04-28T01:25:57;9.47;;;5.53;;
12986;SDS011;58897;51.960;5.582;2023-04-28T01:28:24;7.37;;;4.40;;
12986;SDS011;58897;51.960;5.582;2023-04-28T01:30:50;7.43;;;4.30;;
12986;SDS011;58897;51.960;5.582;2023-04-28T01:33:16;7.47;;;4.50;;
12986;SDS011;58897;51.960;5.582;2023-04-28T01:35:43;8.03;;;4.00;;
12986;SDS011;58897;51.960;5.582;2023-04-28T01:38:09;10.90;;;5.77;;
12986;SDS011;58897;51.960;5.582;2023-04-28T01:40:36;6.47;;;4.53;;
12986;SDS011;58897;51.960;5.582;2023-04-28T01:43:02;8.10;;;4.60;;
12986;SDS011;58897;51.960;5.582;2023-04-28T01:45:29;7.87;;;3.73;;
12986;SDS011;58897;51.960;5.582;2023-04-28T01:47:55;8.83;;;5.53;;
12986;SDS011;58897;51.960;5.582;2023-04-28T01:50:22;8.47;;;4.60;;
12986;SDS011;58897;51.960;5.582;2023-04-28T01:52:49;8.73;;;4.70;;
12986;SDS011;58897;51.960;5.582;2023-04-28T01:55:15;9.23;;;5.33;;
12986;SDS011;58897;51.960;5.582;2023-04-28T01:57:42;7.93;;;3.97;;
12986;SDS011;58897;51.960;5.582;2023-04-28T02:00:08;7.50;;;4.67;;
12986;SDS011;58897;51.960;5.582;2023-04-28T02:02:35;7.67;;;4.17;;
12986;SDS011;58897;51.960;5.582;2023-04-28T02:05:02;10.90;;;5.67;;
12986;SDS011;58897;51.960;5.582;2023-04-28T02:07:29;8.93;;;5.03;;
12986;SDS011;58897;51.960;5.582;2023-04-28T02:09:55;8.93;;;4.83;;
12986;SDS011;58897;51.960;5.582;2023-04-28T02:12:22;5.87;;;4.00;;
12986;SDS011;58897;51.960;5.582;2023-04-28T02:14:48;5.67;;;3.90;;
12986;SDS011;58897;51.960;5.582;2023-04-28T02:17:16;7.83;;;4.70;;
12986;SDS011;58897;51.960;5.582;2023-04-28T02:19:42;9.13;;;4.47;;
12986;SDS011;58897;51.960;5.582;2023-04-28T02:22:09;8.83;;;4.63;;
12986;SDS011;58897;51.960;5.582;2023-04-28T02:24:35;5.70;;;3.77;;
12986;SDS011;58897;51.960;5.582;2023-04-28T02:27:03;8.47;;;4.83;;
12986;SDS011;58897;51.960;5.582;2023-04-28T02:29:30;6.73;;;4.20;;
12986;SDS011;58897;51.960;5.582;2023-04-28T02:31:57;8.57;;;4.40;;
12986;SDS011;58897;51.960;5.582;2023-04-28T02:34:24;7.37;;;4.37;;
12986;SDS011;58897;51.960;5.582;2023-04-28T02:36:50;5.47;;;3.60;;
12986;SDS011;58897;51.960;5.582;2023-04-28T02:39:17;7.00;;;3.93;;
12986;SDS011;58897;51.960;5.582;2023-04-28T02:41:43;9.33;;;4.37;;
12986;SDS011;58897;51.960;5.582;2023-04-28T02:44:10;6.43;;;4.30;;
12986;SDS011;58897;51.960;5.582;2023-04-28T02:46:36;8.73;;;4.20;;
12986;SDS011;58897;51.960;5.582;2023-04-28T02:49:02;7.80;;;4.90;;
12986;SDS011;58897;51.960;5.582;2023-04-28T02:51:29;6.63;;;3.87;;
12986;SDS011;58897;51.960;5.582;2023-04-28T02:53:56;8.40;;;4.73;;
12986;SDS011;58897;51.960;5.582;2023-04-28T02:56:23;9.73;;;4.57;;
12986;SDS011;58897;51.960;5.582;2023-04-28T02:58:49;7.23;;;4.40;;
12986;SDS011;58897;51.960;5.582;2023-04-28T03:01:16;7.17;;;4.73;;
12986;SDS011;58897;51.960;5.582;2023-04-28T03:03:42;6.83;;;3.93;;
12986;SDS011;58897;51.960;5.582;2023-04-28T03:06:09;8.13;;;5.10;;
12986;SDS011;58897;51.960;5.582;2023-04-28T03:08:35;7.07;;;4.17;;
12986;SDS011;58897;51.960;5.582;2023-04-28T03:11:02;6.40;;;3.90;;
12986;SDS011;58897;51.960;5.582;2023-04-28T03:13:28;7.13;;;3.93;;
12986;SDS011;58897;51.960;5.582;2023-04-28T03:15:55;6.87;;;4.27;;
12986;SDS011;58897;51.960;5.582;2023-04-28T03:18:22;7.43;;;4.70;;
12986;SDS011;58897;51.960;5.582;2023-04-28T03:20:48;7.67;;;4.83;;
12986;SDS011;58897;51.960;5.582;2023-04-28T03:23:15;8.73;;;4.73;;
12986;SDS011;58897;51.960;5.582;2023-04-28T03:25:42;7.50;;;4.50;;
12986;SDS011;58897;51.960;5.582;2023-04-28T03:28:08;8.00;;;4.50;;
12986;SDS011;58897;51.960;5.582;2023-04-28T03:30:35;6.00;;;4.47;;
12986;SDS011;58897;51.960;5.582;2023-04-28T03:33:02;9.63;;;4.67;;
12986;SDS011;58897;51.960;5.582;2023-04-28T03:35:28;6.37;;;4.50;;
12986;SDS011;58897;51.960;5.582;2023-04-28T03:37:55;8.00;;;4.67;;
12986;SDS011;58897;51.960;5.582;2023-04-28T03:40:21;9.73;;;4.90;;
12986;SDS011;58897;51.960;5.582;2023-04-28T03:42:48;6.73;;;4.23;;
12986;SDS011;58897;51.960;5.582;2023-04-28T03:45:14;6.70;;;3.97;;
12986;SDS011;58897;51.960;5.582;2023-04-28T03:47:41;7.17;;;4.33;;
12986;SDS011;58897;51.960;5.582;2023-04-28T03:50:08;8.70;;;5.00;;
12986;SDS011;58897;51.960;5.582;2023-04-28T03:52:35;8.00;;;4.40;;
12986;SDS011;58897;51.960;5.582;2023-04-28T03:55:01;9.23;;;5.20;;
12986;SDS011;58897;51.960;5.582;2023-04-28T03:57:28;8.40;;;4.17;;
12986;SDS011;58897;51.960;5.582;2023-04-28T03:59:54;7.03;;;5.03;;
12986;SDS011;58897;51.960;5.582;2023-04-28T04:02:21;6.87;;;4.53;;
12986;SDS011;58897;51.960;5.582;2023-04-28T04:04:48;9.67;;;5.87;;
12986;SDS011;58897;51.960;5.582;2023-04-28T04:07:15;10.97;;;5.57;;
12986;SDS011;58897;51.960;5.582;2023-04-28T04:09:41;8.10;;;5.30;;
12986;SDS011;58897;51.960;5.582;2023-04-28T04:12:08;9.63;;;5.57;;
12986;SDS011;58897;51.960;5.582;2023-04-28T04:14:34;7.33;;;4.47;;
12986;SDS011;58897;51.960;5.582;2023-04-28T04:17:00;10.27;;;5.87;;
12986;SDS011;58897;51.960;5.582;2023-04-28T04:19:27;10.40;;;5.10;;
12986;SDS011;58897;51.960;5.582;2023-04-28T04:21:53;10.13;;;5.73;;
12986;SDS011;58897;51.960;5.582;2023-04-28T04:24:20;8.90;;;5.70;;
12986;SDS011;58897;51.960;5.582;2023-04-28T04:26:46;11.83;;;6.73;;
12986;SDS011;58897;51.960;5.582;2023-04-28T04:29:12;9.07;;;5.60;;
12986;SDS011;58897;51.960;5.582;2023-04-28T04:31:39;9.10;;;5.77;;
12986;SDS011;58897;51.960;5.582;2023-04-28T04:34:06;7.40;;;5.43;;
12986;SDS011;58897;51.960;5.582;2023-04-28T04:36:32;9.93;;;5.67;;
12986;SDS011;58897;51.960;5.582;2023-04-28T04:38:59;6.93;;;4.73;;
12986;SDS011;58897;51.960;5.582;2023-04-28T04:41:25;12.53;;;6.00;;
12986;SDS011;58897;51.960;5.582;2023-04-28T04:43:52;10.67;;;5.67;;
12986;SDS011;58897;51.960;5.582;2023-04-28T04:46:18;9.57;;;5.87;;
12986;SDS011;58897;51.960;5.582;2023-04-28T04:48:45;10.20;;;5.20;;
12986;SDS011;58897;51.960;5.582;2023-04-28T04:51:12;8.47;;;5.23;;
12986;SDS011;58897;51.960;5.582;2023-04-28T04:53:38;7.97;;;4.90;;
12986;SDS011;58897;51.960;5.582;2023-04-28T04:56:05;8.43;;;5.47;;
12986;SDS011;58897;51.960;5.582;2023-04-28T04:58:31;8.60;;;5.37;;
12986;SDS011;58897;51.960;5.582;2023-04-28T05:00:58;8.27;;;4.73;;
12986;SDS011;58897;51.960;5.582;2023-04-28T05:03:25;9.07;;;5.53;;
12986;SDS011;58897;51.960;5.582;2023-04-28T05:05:52;12.67;;;5.60;;
12986;SDS011;58897;51.960;5.582;2023-04-28T05:08:18;9.07;;;5.13;;
12986;SDS011;58897;51.960;5.582;2023-04-28T05:10:44;10.17;;;5.53;;
12986;SDS011;58897;51.960;5.582;2023-04-28T05:13:11;9.23;;;6.13;;
12986;SDS011;58897;51.960;5.582;2023-04-28T05:15:37;10.83;;;5.87;;
12986;SDS011;58897;51.960;5.582;2023-04-28T05:18:04;9.53;;;5.30;;
12986;SDS011;58897;51.960;5.582;2023-04-28T05:20:36;10.17;;;5.33;;
12986;SDS011;58897;51.960;5.582;2023-04-28T05:23:02;9.67;;;5.50;;
12986;SDS011;58897;51.960;5.582;2023-04-28T05:25:29;8.53;;;5.73;;
12986;SDS011;58897;51.960;5.582;2023-04-28T05:27:56;13.03;;;6.80;;
12986;SDS011;58897;51.960;5.582;2023-04-28T05:30:22;11.27;;;6.83;;
12986;SDS011;58897;51.960;5.582;2023-04-28T05:32:49;7.87;;;5.47;;
12986;SDS011;58897;51.960;5.582;2023-04-28T05:35:15;10.13;;;6.27;;
12986;SDS011;58897;51.960;5.582;2023-04-28T05:37:42;8.10;;;6.10;;
12986;SDS011;58897;51.960;5.582;2023-04-28T05:40:10;11.13;;;6.83;;
12986;SDS011;58897;51.960;5.582;2023-04-28T05:42:36;12.07;;;6.60;;
12986;SDS011;58897;51.960;5.582;2023-04-28T05:45:03;9.93;;;6.47;;
12986;SDS011;58897;51.960;5.582;2023-04-28T05:47:31;10.50;;;6.53;;
12986;SDS011;58897;51.960;5.582;2023-04-28T05:49:57;13.23;;;7.27;;
12986;SDS011;58897;51.960;5.582;2023-04-28T05:52:24;11.97;;;7.00;;
12986;SDS011;58897;51.960;5.582;2023-04-28T05:54:50;13.00;;;7.97;;
12986;SDS011;58897;51.960;5.582;2023-04-28T05:57:17;10.60;;;6.53;;
12986;SDS011;58897;51.960;5.582;2023-04-28T05:59:43;11.57;;;7.57;;
12986;SDS011;58897;51.960;5.582;2023-04-28T06:02:10;9.77;;;6.43;;
12986;SDS011;58897;51.960;5.582;2023-04-28T06:04:37;12.90;;;7.47;;
12986;SDS011;58897;51.960;5.582;2023-04-28T06:07:04;10.43;;;6.70;;
12986;SDS011;58897;51.960;5.582;2023-04-28T06:09:31;10.60;;;6.90;;
12986;SDS011;58897;51.960;5.582;2023-04-28T06:11:57;11.90;;;7.27;;
12986;SDS011;58897;51.960;5.582;2023-04-28T06:14:24;12.63;;;8.07;;
12986;SDS011;58897;51.960;5.582;2023-04-28T06:16:50;10.63;;;7.50;;
12986;SDS011;58897;51.960;5.582;2023-04-28T06:19:17;13.07;;;8.67;;
12986;SDS011;58897;51.960;5.582;2023-04-28T06:21:44;12.27;;;8.47;;
12986;SDS011;58897;51.960;5.582;2023-04-28T06:24:11;13.97;;;8.13;;
12986;SDS011;58897;51.960;5.582;2023-04-28T06:26:38;11.53;;;7.80;;
12986;SDS011;58897;51.960;5.582;2023-04-28T06:29:04;10.43;;;7.37;;
12986;SDS011;58897;51.960;5.582;2023-04-28T06:31:31;15.70;;;9.27;;
12986;SDS011;58897;51.960;5.582;2023-04-28T06:33:57;17.17;;;7.83;;
12986;SDS011;58897;51.960;5.582;2023-04-28T06:36:24;12.77;;;9.00;;
12986;SDS011;58897;51.960;5.582;2023-04-28T06:38:50;14.50;;;8.63;;
12986;SDS011;58897;51.960;5.582;2023-04-28T06:41:17;14.93;;;9.03;;
12986;SDS011;58897;51.960;5.582;2023-04-28T06:43:43;12.67;;;8.13;;
12986;SDS011;58897;51.960;5.582;2023-04-28T06:46:10;13.57;;;8.47;;
12986;SDS011;58897;51.960;5.582;2023-04-28T06:48:36;14.83;;;8.57;;
12986;SDS011;58897;51.960;5.582;2023-04-28T06:51:03;14.87;;;9.17;;
12986;SDS011;58897;51.960;5.582;2023-04-28T06:53:30;12.60;;;8.33;;
12986;SDS011;58897;51.960;5.582;2023-04-28T06:55:56;14.43;;;8.53;;
12986;SDS011;58897;51.960;5.582;2023-04-28T06:58:23;15.17;;;10.03;;
12986;SDS011;58897;51.960;5.582;2023-04-28T07:00:50;13.47;;;9.07;;
12986;SDS011;58897;51.960;5.582;2023-04-28T07:03:16;15.90;;;10.00;;
12986;SDS011;58897;51.960;5.582;2023-04-28T07:05:43;12.37;;;8.83;;
12986;SDS011;58897;51.960;5.582;2023-04-28T07:08:10;12.30;;;8.80;;
12986;SDS011;58897;51.960;5.582;2023-04-28T07:10:36;14.03;;;9.40;;
12986;SDS011;58897;51.960;5.582;2023-04-28T07:13:03;14.37;;;9.13;;
12986;SDS011;58897;51.960;5.582;2023-04-28T07:15:29;16.07;;;10.53;;
12986;SDS011;58897;51.960;5.582;2023-04-28T07:17:56;14.70;;;9.03;;
12986;SDS011;58897;51.960;5.582;2023-04-28T07:20:23;15.80;;;10.83;;
12986;SDS011;58897;51.960;5.582;2023-04-28T07:22:49;17.27;;;11.20;;
12986;SDS011;58897;51.960;5.582;2023-04-28T07:25:16;16.60;;;9.40;;
12986;SDS011;58897;51.960;5.582;2023-04-28T07:27:43;15.50;;;9.97;;
12986;SDS011;58897;51.960;5.582;2023-04-28T07:30:11;18.80;;;10.23;;
12986;SDS011;58897;51.960;5.582;2023-04-28T07:32:52;14.07;;;9.73;;
12986;SDS011;58897;51.960;5.582;2023-04-28T07:35:19;18.20;;;12.00;;
12986;SDS011;58897;51.960;5.582;2023-04-28T07:37:45;18.70;;;11.43;;
12986;SDS011;58897;51.960;5.582;2023-04-28T07:40:12;16.07;;;9.70;;
12986;SDS011;58897;51.960;5.582;2023-04-28T07:42:39;15.50;;;10.00;;
12986;SDS011;58897;51.960;5.582;2023-04-28T07:45:05;17.03;;;11.77;;
12986;SDS011;58897;51.960;5.582;2023-04-28T07:47:32;14.93;;;10.60;;
12986;SDS011;58897;51.960;5.582;2023-04-28T07:50:00;15.70;;;9.87;;
12986;SDS011;58897;51.960;5.582;2023-04-28T07:52:30;17.97;;;11.40;;
12986;SDS011;58897;51.960;5.582;2023-04-28T07:54:57;17.57;;;11.73;;
12986;SDS011;58897;51.960;5.582;2023-04-28T07:57:24;18.20;;;11.80;;
12986;SDS011;58897;51.960;5.582;2023-04-28T07:59:51;20.47;;;12.13;;
12986;SDS011;58897;51.960;5.582;2023-04-28T08:02:18;18.00;;;11.00;;
12986;SDS011;58897;51.960;5.582;2023-04-28T08:04:46;16.87;;;12.43;;
12986;SDS011;58897;51.960;5.582;2023-04-28T08:07:13;15.53;;;10.70;;
12986;SDS011;58897;51.960;5.582;2023-04-28T08:09:39;18.03;;;11.37;;
12986;SDS011;58897;51.960;5.582;2023-04-28T08:12:09;16.17;;;11.47;;
12986;SDS011;58897;51.960;5.582;2023-04-28T08:14:35;17.40;;;11.40;;
12986;SDS011;58897;51.960;5.582;2023-04-28T08:17:02;19.57;;;11.33;;
12986;SDS011;58897;51.960;5.582;2023-04-28T08:19:29;17.63;;;11.60;;
12986;SDS011;58897;51.960;5.582;2023-04-28T08:21:55;15.17;;;10.83;;
12986;SDS011;58897;51.960;5.582;2023-04-28T08:24:22;15.67;;;10.57;;
12986;SDS011;58897;51.960;5.582;2023-04-28T08:26:49;13.93;;;10.63;;
12986;SDS011;58897;51.960;5.582;2023-04-28T08:29:16;15.00;;;10.73;;
12986;SDS011;58897;51.960;5.582;2023-04-28T08:31:42;17.17;;;11.00;;
12986;SDS011;58897;51.960;5.582;2023-04-28T08:34:09;17.67;;;10.57;;
12986;SDS011;58897;51.960;5.582;2023-04-28T08:36:35;16.93;;;11.17;;
12986;SDS011;58897;51.960;5.582;2023-04-28T08:39:02;19.83;;;11.17;;
12986;SDS011;58897;51.960;5.582;2023-04-28T08:41:31;16.83;;;12.40;;
12986;SDS011;58897;51.960;5.582;2023-04-28T08:43:58;19.97;;;11.83;;
12986;SDS011;58897;51.960;5.582;2023-04-28T08:46:25;17.13;;;11.73;;
12986;SDS011;58897;51.960;5.582;2023-04-28T08:48:55;19.43;;;11.10;;
12986;SDS011;58897;51.960;5.582;2023-04-28T08:51:26;16.30;;;11.40;;
12986;SDS011;58897;51.960;5.582;2023-04-28T08:53:58;15.37;;;11.43;;
12986;SDS011;58897;51.960;5.582;2023-04-28T08:56:49;14.00;;;11.13;;
12986;SDS011;58897;51.960;5.582;2023-04-28T08:59:17;16.43;;;12.13;;
12986;SDS011;58897;51.960;5.582;2023-04-28T09:01:46;15.73;;;11.53;;
12986;SDS011;58897;51.960;5.582;2023-04-28T09:04:15;17.70;;;12.27;;
12986;SDS011;58897;51.960;5.582;2023-04-28T09:06:43;14.10;;;11.10;;
12986;SDS011;58897;51.960;5.582;2023-04-28T09:11:55;17.33;;;12.00;;
12986;SDS011;58897;51.960;5.582;2023-04-28T09:14:26;17.20;;;11.90;;
12986;SDS011;58897;51.960;5.582;2023-04-28T09:16:54;19.40;;;12.97;;
12986;SDS011;58897;51.960;5.582;2023-04-28T09:19:21;15.77;;;11.63;;
12986;SDS011;58897;51.960;5.582;2023-04-28T09:21:48;17.40;;;12.03;;
12986;SDS011;58897;51.960;5.582;2023-04-28T09:24:30;18.23;;;12.77;;
12986;SDS011;58897;51.960;5.582;2023-04-28T09:27:02;17.23;;;12.13;;
12986;SDS011;58897;51.960;5.582;2023-04-28T09:29:30;16.87;;;12.23;;
12986;SDS011;58897;51.960;5.582;2023-04-28T09:35:02;18.23;;;11.80;;
12986;SDS011;58897;51.960;5.582;2023-04-28T09:37:28;15.03;;;10.93;;
12986;SDS011;58897;51.960;5.582;2023-04-28T09:40:17;17.13;;;10.60;;
12986;SDS011;58897;51.960;5.582;2023-04-28T09:42:43;13.87;;;10.87;;
12986;SDS011;58897;51.960;5.582;2023-04-28T09:45:12;16.87;;;11.23;;
12986;SDS011;58897;51.960;5.582;2023-04-28T09:47:44;15.70;;;11.77;;
12986;SDS011;58897;51.960;5.582;2023-04-28T09:50:13;17.37;;;11.17;;
12986;SDS011;58897;51.960;5.582;2023-04-28T09:52:43;14.63;;;11.50;;
12986;SDS011;58897;51.960;5.582;2023-04-28T09:55:14;16.33;;;11.00;;
12986;SDS011;58897;51.960;5.582;2023-04-28T09:57:41;14.30;;;10.90;;
12986;SDS011;58897;51.960;5.582;2023-04-28T10:00:11;13.87;;;10.03;;
12986;SDS011;58897;51.960;5.582;2023-04-28T10:02:38;13.87;;;10.83;;
12986;SDS011;58897;51.960;5.582;2023-04-28T10:05:09;13.20;;;10.57;;
12986;SDS011;58897;51.960;5.582;2023-04-28T10:07:37;14.97;;;10.90;;
12986;SDS011;58897;51.960;5.582;2023-04-28T10:10:05;15.60;;;11.07;;
12986;SDS011;58897;51.960;5.582;2023-04-28T10:12:32;14.13;;;11.30;;
12986;SDS011;58897;51.960;5.582;2023-04-28T10:15:00;13.57;;;9.50;;
12986;SDS011;58897;51.960;5.582;2023-04-28T10:17:27;15.50;;;10.93;;
12986;SDS011;58897;51.960;5.582;2023-04-28T10:19:55;15.73;;;10.47;;
12986;SDS011;58897;51.960;5.582;2023-04-28T10:27:55;14.90;;;10.47;;
12986;SDS011;58897;51.960;5.582;2023-04-28T10:30:24;12.90;;;9.90;;
12986;SDS011;58897;51.960;5.582;2023-04-28T10:40:31;13.23;;;9.23;;
12986;SDS011;58897;51.960;5.582;2023-04-28T10:42:58;14.33;;;10.20;;
12986;SDS011;58897;51.960;5.582;2023-04-28T10:48:50;13.37;;;9.13;;
12986;SDS011;58897;51.960;5.582;2023-04-28T10:56:30;15.10;;;10.37;;
12986;SDS011;58897;51.960;5.582;2023-04-28T10:58:58;13.57;;;9.93;;
12986;SDS011;58897;51.960;5.582;2023-04-28T11:01:26;16.17;;;10.60;;
12986;SDS011;58897;51.960;5.582;2023-04-28T11:03:58;13.60;;;9.63;;
12986;SDS011;58897;51.960;5.582;2023-04-28T11:06:32;15.50;;;10.50;;
12986;SDS011;58897;51.960;5.582;2023-04-28T11:09:05;14.10;;;9.83;;
12986;SDS011;58897;51.960;5.582;2023-04-28T11:12:04;16.60;;;10.87;;
12986;SDS011;58897;51.960;5.582;2023-04-28T11:14:33;19.73;;;12.07;;
12986;SDS011;58897;51.960;5.582;2023-04-28T11:19:32;18.47;;;12.17;;
12986;SDS011;58897;51.960;5.582;2023-04-28T11:22:05;19.87;;;11.60;;
12986;SDS011;58897;51.960;5.582;2023-04-28T11:24:36;19.07;;;13.13;;
12986;SDS011;58897;51.960;5.582;2023-04-28T11:27:03;21.00;;;12.93;;
12986;SDS011;58897;51.960;5.582;2023-04-28T11:29:30;25.50;;;16.33;;
12986;SDS011;58897;51.960;5.582;2023-04-28T11:31:58;22.60;;;13.77;;
12986;SDS011;58897;51.960;5.582;2023-04-28T11:34:25;20.50;;;13.50;;
12986;SDS011;58897;51.960;5.582;2023-04-28T11:36:52;21.17;;;12.10;;
12986;SDS011;58897;51.960;5.582;2023-04-28T11:39:30;19.20;;;12.67;;
12986;SDS011;58897;51.960;5.582;2023-04-28T11:42:07;21.23;;;12.60;;
12986;SDS011;58897;51.960;5.582;2023-04-28T11:44:35;21.33;;;13.07;;
12986;SDS011;58897;51.960;5.582;2023-04-28T11:47:02;19.37;;;12.70;;
12986;SDS011;58897;51.960;5.582;2023-04-28T11:49:51;20.43;;;12.47;;
12986;SDS011;58897;51.960;5.582;2023-04-28T11:52:17;17.90;;;11.80;;
12986;SDS011;58897;51.960;5.582;2023-04-28T11:54:43;18.07;;;12.60;;
12986;SDS011;58897;51.960;5.582;2023-04-28T11:57:17;21.63;;;12.97;;
12986;SDS011;58897;51.960;5.582;2023-04-28T11:59:44;17.23;;;11.27;;
12986;SDS011;58897;51.960;5.582;2023-04-28T12:02:11;19.43;;;10.43;;
12986;SDS011;58897;51.960;5.582;2023-04-28T12:04:39;18.53;;;9.93;;
12986;SDS011;58897;51.960;5.582;2023-04-28T12:07:11;14.07;;;9.53;;
12986;SDS011;58897;51.960;5.582;2023-04-28T12:12:10;12.97;;;8.17;;
12986;SDS011;58897;51.960;5.582;2023-04-28T12:14:56;13.63;;;9.17;;
12986;SDS011;58897;51.960;5.582;2023-04-28T12:17:26;13.73;;;8.67;;
12986;SDS011;58897;51.960;5.582;2023-04-28T12:19:53;14.27;;;8.73;;
12986;SDS011;58897;51.960;5.582;2023-04-28T12:22:24;11.70;;;7.53;;
12986;SDS011;58897;51.960;5.582;2023-04-28T12:25:03;12.77;;;8.03;;
12986;SDS011;58897;51.960;5.582;2023-04-28T12:27:34;16.30;;;8.30;;
12986;SDS011;58897;51.960;5.582;2023-04-28T12:32:46;12.03;;;8.10;;
12986;SDS011;58897;51.960;5.582;2023-04-28T12:35:13;13.60;;;7.90;;
12986;SDS011;58897;51.960;5.582;2023-04-28T12:37:41;12.37;;;7.97;;
12986;SDS011;58897;51.960;5.582;2023-04-28T12:40:08;12.13;;;8.37;;
12986;SDS011;58897;51.960;5.582;2023-04-28T12:42:35;12.63;;;8.10;;
12986;SDS011;58897;51.960;5.582;2023-04-28T12:45:02;11.40;;;7.60;;
12986;SDS011;58897;51.960;5.582;2023-04-28T12:47:29;10.80;;;7.53;;
12986;SDS011;58897;51.960;5.582;2023-04-28T12:49:56;10.97;;;7.23;;
12986;SDS011;58897;51.960;5.582;2023-04-28T12:52:23;10.57;;;7.37;;
12986;SDS011;58897;51.960;5.582;2023-04-28T12:54:49;11.40;;;8.03;;
12986;SDS011;58897;51.960;5.582;2023-04-28T12:57:16;9.93;;;7.20;;
12986;SDS011;58897;51.960;5.582;2023-04-28T12:59:45;12.97;;;7.13;;
12986;SDS011;58897;51.960;5.582;2023-04-28T13:02:13;12.83;;;8.27;;
12986;SDS011;58897;51.960;5.582;2023-04-28T13:04:40;11.60;;;7.17;;
12986;SDS011;58897;51.960;5.582;2023-04-28T13:07:14;9.43;;;6.33;;
12986;SDS011;58897;51.960;5.582;2023-04-28T13:09:41;8.47;;;6.07;;
12986;SDS011;58897;51.960;5.582;2023-04-28T13:12:09;8.20;;;5.47;;
12986;SDS011;58897;51.960;5.582;2023-04-28T13:14:36;9.37;;;4.83;;
12986;SDS011;58897;51.960;5.582;2023-04-28T13:17:03;8.23;;;6.00;;
12986;SDS011;58897;51.960;5.582;2023-04-28T13:19:30;7.13;;;5.17;;
12986;SDS011;58897;51.960;5.582;2023-04-28T13:21:58;6.83;;;4.37;;
12986;SDS011;58897;51.960;5.582;2023-04-28T13:24:25;7.67;;;4.63;;
12986;SDS011;58897;51.960;5.582;2023-04-28T13:26:51;5.97;;;4.17;;
12986;SDS011;58897;51.960;5.582;2023-04-28T13:29:18;5.20;;;3.97;;
12986;SDS011;58897;51.960;5.582;2023-04-28T13:31:44;5.57;;;3.50;;
12986;SDS011;58897;51.960;5.582;2023-04-28T13:34:11;6.03;;;4.13;;
12986;SDS011;58897;51.960;5.582;2023-04-28T13:36:42;7.30;;;4.93;;
12986;SDS011;58897;51.960;5.582;2023-04-28T13:39:09;7.87;;;5.63;;
12986;SDS011;58897;51.960;5.582;2023-04-28T13:41:41;6.57;;;4.90;;
12986;SDS011;58897;51.960;5.582;2023-04-28T13:44:08;9.37;;;5.47;;
12986;SDS011;58897;51.960;5.582;2023-04-28T13:46:34;6.97;;;4.50;;
12986;SDS011;58897;51.960;5.582;2023-04-28T13:49:01;6.43;;;5.03;;
12986;SDS011;58897;51.960;5.582;2023-04-28T13:51:27;7.40;;;4.50;;
12986;SDS011;58897;51.960;5.582;2023-04-28T13:53:54;4.37;;;3.60;;
12986;SDS011;58897;51.960;5.582;2023-04-28T13:56:20;5.17;;;3.80;;
12986;SDS011;58897;51.960;5.582;2023-04-28T13:58:47;5.33;;;3.57;;
12986;SDS011;58897;51.960;5.582;2023-04-28T14:01:14;6.50;;;4.10;;
12986;SDS011;58897;51.960;5.582;2023-04-28T14:03:41;6.27;;;4.43;;
12986;SDS011;58897;51.960;5.582;2023-04-28T14:06:09;6.27;;;3.93;;
12986;SDS011;58897;51.960;5.582;2023-04-28T14:08:36;4.17;;;3.10;;
12986;SDS011;58897;51.960;5.582;2023-04-28T14:11:02;3.90;;;3.03;;
12986;SDS011;58897;51.960;5.582;2023-04-28T14:13:29;4.37;;;3.40;;
12986;SDS011;58897;51.960;5.582;2023-04-28T14:15:55;3.93;;;3.20;;
12986;SDS011;58897;51.960;5.582;2023-04-28T14:18:25;3.47;;;2.60;;
12986;SDS011;58897;51.960;5.582;2023-04-28T14:20:52;5.57;;;3.37;;
12986;SDS011;58897;51.960;5.582;2023-04-28T14:23:20;4.90;;;3.40;;
12986;SDS011;58897;51.960;5.582;2023-04-28T14:25:47;5.20;;;3.80;;
12986;SDS011;58897;51.960;5.582;2023-04-28T14:28:14;4.40;;;3.57;;
12986;SDS011;58897;51.960;5.582;2023-04-28T14:30:41;6.17;;;4.30;;
12986;SDS011;58897;51.960;5.582;2023-04-28T14:33:08;3.63;;;2.70;;
12986;SDS011;58897;51.960;5.582;2023-04-28T14:35:34;4.40;;;3.30;;
12986;SDS011;58897;51.960;5.582;2023-04-28T14:38:01;3.30;;;3.00;;
12986;SDS011;58897;51.960;5.582;2023-04-28T14:40:28;4.60;;;3.73;;
12986;SDS011;58897;51.960;5.582;2023-04-28T14:42:55;7.73;;;5.27;;
12986;SDS011;58897;51.960;5.582;2023-04-28T14:45:21;6.17;;;4.73;;
12986;SDS011;58897;51.960;5.582;2023-04-28T14:47:48;8.03;;;5.33;;
12986;SDS011;58897;51.960;5.582;2023-04-28T14:50:15;6.50;;;4.73;;
12986;SDS011;58897;51.960;5.582;2023-04-28T14:52:41;6.13;;;4.70;;
12986;SDS011;58897;51.960;5.582;2023-04-28T14:55:08;6.13;;;4.90;;
12986;SDS011;58897;51.960;5.582;2023-04-28T14:57:35;5.97;;;4.93;;
12986;SDS011;58897;51.960;5.582;2023-04-28T15:00:03;6.47;;;5.00;;
12986;SDS011;58897;51.960;5.582;2023-04-28T15:02:32;6.13;;;5.37;;
12986;SDS011;58897;51.960;5.582;2023-04-28T15:04:59;6.97;;;6.03;;
12986;SDS011;58897;51.960;5.582;2023-04-28T15:07:26;6.37;;;5.33;;
12986;SDS011;58897;51.960;5.582;2023-04-28T15:09:57;8.00;;;5.37;;
12986;SDS011;58897;51.960;5.582;2023-04-28T15:12:24;7.90;;;6.00;;
12986;SDS011;58897;51.960;5.582;2023-04-28T15:14:51;10.10;;;7.43;;